createdAt,value
2023-01-12T00:02:19.064Z,97753.09
2023-01-12T00:04:45.734Z,97756.97
2023-01-12T00:07:13.162Z,97759.09
2023-01-12T00:09:40.879Z,97759.63
2023-01-12T00:12:09.463Z,97755.47
2023-01-12T00:14:36.399Z,97756.22
2023-01-12T00:17:03.162Z,97743.75
2023-01-12T00:19:31.341Z,97752.78
2023-01-12T00:21:59.195Z,97755.19
2023-01-12T00:24:29.609Z,97752.41
2023-01-12T00:26:57.157Z,97746.97
2023-01-12T00:29:23.983Z,97758.22
2023-01-12T00:31:50.593Z,97752.28
2023-01-12T00:34:17.602Z,97755.66
2023-01-12T00:36:44.952Z,97749.19
2023-01-12T00:39:11.490Z,97752.41
2023-01-12T00:41:38.633Z,97759.78
2023-01-12T00:44:05.676Z,97761.75
2023-01-12T00:46:32.690Z,97757.81
2023-01-12T00:48:59.356Z,97751.63
2023-01-12T00:51:25.981Z,97748.00
2023-01-12T00:53:52.539Z,97745.16
2023-01-12T00:56:19.120Z,97740.22
2023-01-12T00:58:45.701Z,97740.88
2023-01-12T01:01:12.364Z,97748.38
2023-01-12T01:03:38.928Z,97744.81
2023-01-12T01:06:06.288Z,97734.69
2023-01-12T01:08:32.926Z,97726.16
2023-01-12T01:11:10.705Z,97726.03
2023-01-12T01:13:37.524Z,97723.56
2023-01-12T01:16:04.653Z,97720.69
2023-01-12T01:18:32.041Z,97716.88
2023-01-12T01:20:58.701Z,97717.97
2023-01-12T01:23:25.779Z,97714.41
2023-01-12T01:25:52.727Z,97711.91
2023-01-12T01:28:19.516Z,97725.22
2023-01-12T01:30:46.380Z,97726.09
2023-01-12T01:33:13.525Z,97722.94
2023-01-12T01:35:40.104Z,97727.94
2023-01-12T01:38:06.911Z,97729.22
2023-01-12T01:40:33.479Z,97733.38
2023-01-12T01:43:00.119Z,97732.94
2023-01-12T01:45:26.757Z,97733.63
2023-01-12T01:47:55.624Z,97734.22
2023-01-12T01:50:26.418Z,97735.78
2023-01-12T01:52:57.569Z,97734.22
2023-01-12T01:55:26.636Z,97731.91
2023-01-12T01:58:02.754Z,97722.59
2023-01-12T02:00:29.767Z,97735.34
2023-01-12T02:02:56.507Z,97723.63
2023-01-12T02:05:24.767Z,97719.03
2023-01-12T02:07:51.356Z,97723.06
2023-01-12T02:10:18.437Z,97733.56
2023-01-12T02:12:45.136Z,97733.03
2023-01-12T02:15:11.738Z,97740.59
2023-01-12T02:17:53.092Z,97751.75
2023-01-12T02:20:57.308Z,97747.34
2023-01-12T02:23:26.550Z,97735.75
2023-01-12T02:26:04.966Z,97725.31
2023-01-12T02:28:53.256Z,97724.84
2023-01-12T02:32:21.426Z,97719.59
2023-01-12T02:35:10.965Z,97700.75
2023-01-12T02:37:48.498Z,97694.06
2023-01-12T02:40:14.968Z,97694.41
2023-01-12T02:42:43.761Z,97691.38
2023-01-12T02:45:24.346Z,97684.34
2023-01-12T02:48:28.609Z,97686.66
2023-01-12T02:51:05.772Z,97688.69
2023-01-12T02:53:37.542Z,97686.66
2023-01-12T02:56:05.118Z,97684.72
2023-01-12T02:58:32.867Z,97686.53
2023-01-12T03:00:59.717Z,97689.13
2023-01-12T03:03:26.412Z,97691.38
2023-01-12T03:05:55.969Z,97675.41
2023-01-12T03:08:22.518Z,97672.72
2023-01-12T03:11:00.412Z,97670.59
2023-01-12T03:13:27.604Z,97676.78
2023-01-12T03:15:55.380Z,97680.81
2023-01-12T03:18:29.547Z,97687.47
2023-01-12T03:20:59.998Z,97691.22
2023-01-12T03:23:33.792Z,97694.69
2023-01-12T03:26:00.537Z,97702.53
2023-01-12T03:28:28.912Z,97691.78
2023-01-12T03:30:56.941Z,97686.94
2023-01-12T03:33:23.884Z,97687.06
2023-01-12T03:36:04.600Z,97680.38
2023-01-12T03:38:38.095Z,97691.78
2023-01-12T03:41:11.370Z,97695.13
2023-01-12T03:43:43.239Z,97703.53
2023-01-12T03:46:18.460Z,97712.03
2023-01-12T03:48:52.746Z,97718.53
2023-01-12T03:51:46.620Z,97715.91
2023-01-12T03:54:13.227Z,97724.00
2023-01-12T03:56:40.103Z,97710.56
2023-01-12T03:59:06.815Z,97708.88
2023-01-12T04:01:33.685Z,97701.66
2023-01-12T04:04:00.386Z,97699.47
2023-01-12T04:06:27.057Z,97710.47
2023-01-12T04:08:53.699Z,97717.06
2023-01-12T04:11:20.348Z,97716.06
2023-01-12T04:13:47.002Z,97713.28
2023-01-12T04:16:13.686Z,97706.13
2023-01-12T04:18:40.338Z,97709.19
2023-01-12T04:21:06.966Z,97710.34
2023-01-12T04:23:33.570Z,97708.13
2023-01-12T04:26:00.225Z,97699.72
2023-01-12T04:28:26.879Z,97702.97
2023-01-12T04:30:53.487Z,97708.50
2023-01-12T04:33:20.088Z,97706.19
2023-01-12T04:35:47.060Z,97699.16
2023-01-12T04:38:13.641Z,97693.88
2023-01-12T04:40:40.303Z,97692.84
2023-01-12T04:43:08.628Z,97692.47
2023-01-12T04:45:39.709Z,97697.63
2023-01-12T04:48:08.961Z,97685.34
2023-01-12T04:50:35.616Z,97694.09
2023-01-12T04:53:03.369Z,97693.56
2023-01-12T04:55:30.028Z,97695.00
2023-01-12T04:57:56.967Z,97686.72
2023-01-12T05:00:23.704Z,97688.09
2023-01-12T05:02:50.295Z,97692.84
2023-01-12T05:05:16.921Z,97703.13
2023-01-12T05:07:43.657Z,97713.44
2023-01-12T05:10:10.927Z,97714.75
2023-01-12T05:12:37.540Z,97735.47
2023-01-12T05:15:04.532Z,97740.16
2023-01-12T05:17:32.304Z,97738.63
2023-01-12T05:20:00.802Z,97726.69
2023-01-12T05:22:27.753Z,97723.47
2023-01-12T05:24:54.356Z,97708.25
2023-01-12T05:27:20.961Z,97715.06
2023-01-12T05:29:47.595Z,97718.03
2023-01-12T05:32:14.213Z,97723.38
2023-01-12T05:34:40.874Z,97710.84
2023-01-12T05:37:07.482Z,97707.41
2023-01-12T05:39:34.127Z,97705.38
2023-01-12T05:42:00.801Z,97709.19
2023-01-12T05:44:27.475Z,97708.00
2023-01-12T05:46:54.145Z,97714.28
2023-01-12T05:49:20.796Z,97713.94
2023-01-12T05:51:47.470Z,97728.03
2023-01-12T05:54:14.077Z,97726.03
2023-01-12T05:56:40.807Z,97729.44
2023-01-12T05:59:07.414Z,97735.03
2023-01-12T06:01:34.086Z,97731.63
2023-01-12T06:04:01.001Z,97732.34
2023-01-12T06:06:28.753Z,97729.47
2023-01-12T06:08:55.393Z,97725.75
2023-01-12T06:11:22.172Z,97744.19
2023-01-12T06:13:48.808Z,97743.88
2023-01-12T06:16:15.460Z,97746.44
2023-01-12T06:18:42.118Z,97738.56
2023-01-12T06:21:08.987Z,97740.78
2023-01-12T06:23:36.029Z,97743.25
2023-01-12T06:26:03.708Z,97742.19
2023-01-12T06:28:30.360Z,97735.69
2023-01-12T06:31:01.422Z,97745.19
2023-01-12T06:33:28.191Z,97741.16
2023-01-12T06:35:57.680Z,97748.81
2023-01-12T06:38:25.351Z,97745.97
2023-01-12T06:40:51.985Z,97744.78
2023-01-12T06:43:18.671Z,97745.50
2023-01-12T06:45:45.477Z,97746.69
2023-01-12T06:48:12.187Z,97744.56
2023-01-12T06:50:38.897Z,97745.38
2023-01-12T06:53:05.681Z,97734.28
2023-01-12T06:55:32.348Z,97729.94
2023-01-12T06:58:02.860Z,97714.69
2023-01-12T07:00:29.503Z,97716.19
2023-01-12T07:02:56.140Z,97725.00
2023-01-12T07:05:22.779Z,97727.81
2023-01-12T07:07:49.445Z,97729.50
2023-01-12T07:10:16.395Z,97738.34
2023-01-12T07:12:43.031Z,97730.97
2023-01-12T07:15:10.235Z,97732.31
2023-01-12T07:17:36.841Z,97720.00
2023-01-12T07:20:03.662Z,97722.13
2023-01-12T07:22:30.288Z,97722.13
2023-01-12T07:24:57.837Z,97731.63
2023-01-12T07:27:24.619Z,97733.81
2023-01-12T07:29:51.260Z,97727.66
2023-01-12T07:32:17.885Z,97719.66
2023-01-12T07:34:44.529Z,97714.13
2023-01-12T07:37:11.217Z,97727.81
2023-01-12T07:39:39.127Z,97723.00
2023-01-12T07:42:05.784Z,97726.63
2023-01-12T07:44:32.411Z,97725.75
2023-01-12T07:46:58.993Z,97722.91
2023-01-12T07:49:26.287Z,97715.41
2023-01-12T07:51:53.816Z,97714.03
2023-01-12T07:54:20.485Z,97714.69
2023-01-12T07:56:47.162Z,97719.22
2023-01-12T07:59:13.886Z,97711.00
2023-01-12T08:01:40.644Z,97715.28
2023-01-12T08:04:07.449Z,97729.13
2023-01-12T08:06:34.476Z,97726.09
2023-01-12T08:09:01.129Z,97739.44
2023-01-12T08:11:27.790Z,97727.56
2023-01-12T08:13:58.040Z,97743.13
2023-01-12T08:16:30.279Z,97748.84
2023-01-12T08:19:18.225Z,97745.97
2023-01-12T08:21:47.191Z,97763.63
2023-01-12T08:24:15.140Z,97768.16
2023-01-12T08:26:42.397Z,97779.59
2023-01-12T08:29:16.880Z,97774.25
2023-01-12T08:31:43.531Z,97778.97
2023-01-12T08:34:10.202Z,97787.69
2023-01-12T08:36:36.831Z,97799.63
2023-01-12T08:39:03.438Z,97787.69
2023-01-12T08:41:30.885Z,97784.91
2023-01-12T08:43:57.473Z,97773.94
2023-01-12T08:46:24.082Z,97762.25
2023-01-12T08:48:50.767Z,97750.59
2023-01-12T08:51:17.392Z,97736.72
2023-01-12T08:53:44.019Z,97727.41
2023-01-12T08:56:10.629Z,97733.50
2023-01-12T08:58:37.415Z,97747.06
2023-01-12T09:01:08.276Z,97756.53
2023-01-12T09:03:36.013Z,97745.03
2023-01-12T09:06:18.413Z,97753.44
2023-01-12T09:08:45.251Z,97754.63
2023-01-12T09:11:12.407Z,97746.56
2023-01-12T09:13:39.104Z,97745.75
2023-01-12T09:16:12.583Z,97743.72
2023-01-12T09:18:40.154Z,97733.44
2023-01-12T09:21:08.312Z,97731.84
2023-01-12T09:23:35.140Z,97735.41
2023-01-12T09:26:06.048Z,97739.47
2023-01-12T09:28:32.901Z,97753.88
2023-01-12T09:31:07.340Z,97756.28
2023-01-12T09:33:35.632Z,97753.13
2023-01-12T09:36:02.250Z,97751.56
2023-01-12T09:38:29.044Z,97754.78
2023-01-12T09:41:02.163Z,97768.13
2023-01-12T09:43:29.080Z,97762.41
2023-01-12T09:45:55.719Z,97771.47
2023-01-12T09:48:22.414Z,97779.41
2023-01-12T09:51:04.474Z,97774.03
2023-01-12T09:53:33.292Z,97779.22
2023-01-12T09:56:16.963Z,97776.06
2023-01-12T09:59:06.303Z,97776.16
2023-01-12T10:01:32.968Z,97767.38
2023-01-12T10:04:00.144Z,97758.56
2023-01-12T10:06:26.769Z,97752.63
2023-01-12T10:08:56.689Z,97761.00
2023-01-12T10:11:43.693Z,97748.41
2023-01-12T10:14:32.163Z,97737.50
2023-01-12T10:17:17.278Z,97743.19
2023-01-12T10:20:09.619Z,97737.75
2023-01-12T10:22:45.123Z,97731.03
2023-01-12T10:25:32.932Z,97723.25
2023-01-12T10:27:59.889Z,97709.00
2023-01-12T10:30:33.903Z,97704.09
2023-01-12T10:33:20.762Z,97715.28
2023-01-12T10:36:10.580Z,97718.25
2023-01-12T10:38:52.748Z,97705.47
2023-01-12T10:41:20.471Z,97697.09
2023-01-12T10:44:05.863Z,97699.19
2023-01-12T10:46:33.556Z,97702.78
2023-01-12T10:49:18.844Z,97703.34
2023-01-12T10:51:56.388Z,97692.19
2023-01-12T10:54:43.222Z,97694.78
2023-01-12T10:57:20.336Z,97695.44
2023-01-12T10:59:58.007Z,97690.50
2023-01-12T11:02:25.672Z,97697.41
2023-01-12T11:04:53.096Z,97694.22
2023-01-12T11:07:20.379Z,97688.75
2023-01-12T11:09:47.299Z,97681.75
2023-01-12T11:12:30.402Z,97674.47
2023-01-12T11:15:00.786Z,97677.66
2023-01-12T11:17:53.525Z,97688.41
2023-01-12T11:20:37.062Z,97697.28
2023-01-12T11:23:07.352Z,97696.28
2023-01-12T11:25:36.204Z,97688.53
2023-01-12T11:28:43.201Z,97689.00
2023-01-12T11:31:17.198Z,97685.09
2023-01-12T11:33:49.455Z,97674.84
2023-01-12T11:36:18.646Z,97672.56
2023-01-12T11:38:57.882Z,97672.28
2023-01-12T11:41:33.472Z,97672.94
2023-01-12T11:44:08.075Z,97682.84
2023-01-12T11:46:38.819Z,97681.91
2023-01-12T11:49:17.403Z,97666.13
2023-01-12T11:51:44.196Z,97649.66
2023-01-12T11:54:14.023Z,97651.00
2023-01-12T11:57:12.454Z,97646.97
2023-01-12T11:59:42.469Z,97645.38
2023-01-12T12:02:27.368Z,97639.13
2023-01-12T12:05:03.554Z,97626.72
2023-01-12T12:07:54.347Z,97621.59
2023-01-12T12:10:30.602Z,97616.84
2023-01-12T12:13:18.849Z,97613.16
2023-01-12T12:16:10.399Z,97621.06
2023-01-12T12:18:55.411Z,97622.41
2023-01-12T12:21:31.121Z,97620.34
2023-01-12T12:24:35.738Z,97610.34
2023-01-12T12:27:12.279Z,97603.50
2023-01-12T12:30:06.754Z,97603.53
2023-01-12T12:33:14.714Z,97596.34
2023-01-12T12:35:41.555Z,97592.88
2023-01-12T12:38:26.572Z,97586.06
2023-01-12T12:41:01.934Z,97584.81
2023-01-12T12:43:32.958Z,97577.59
2023-01-12T12:46:09.551Z,97556.09
2023-01-12T12:48:57.251Z,97551.75
2023-01-12T12:51:23.884Z,97555.50
2023-01-12T12:53:50.501Z,97557.56
2023-01-12T12:56:18.735Z,97552.38
2023-01-12T12:58:48.775Z,97551.34
2023-01-12T13:01:21.611Z,97539.34
2023-01-12T13:03:54.960Z,97539.16
2023-01-12T13:06:24.619Z,97528.59
2023-01-12T13:08:55.567Z,97523.81
2023-01-12T13:11:49.000Z,97516.81
2023-01-12T13:14:31.831Z,97516.00
2023-01-12T13:17:02.128Z,97508.56
2023-01-12T13:19:39.723Z,97512.06
2023-01-12T13:22:27.826Z,97511.88
2023-01-12T13:25:20.995Z,97490.16
2023-01-12T13:27:56.518Z,97498.81
2023-01-12T13:30:26.962Z,97503.75
2023-01-12T13:32:53.587Z,97505.78
2023-01-12T13:35:28.414Z,97503.25
2023-01-12T13:38:00.613Z,97499.72
2023-01-12T13:40:30.759Z,97501.63
2023-01-12T13:42:58.492Z,97498.28
2023-01-12T13:45:25.291Z,97488.00
2023-01-12T13:47:51.911Z,97476.47
2023-01-12T13:50:25.901Z,97484.31
2023-01-12T13:52:56.772Z,97480.78
2023-01-12T13:55:24.726Z,97475.00
2023-01-12T13:57:59.136Z,97472.75
2023-01-12T14:00:26.058Z,97475.63
2023-01-12T14:02:52.806Z,97465.94
2023-01-12T14:05:54.928Z,97462.63
2023-01-12T14:08:39.653Z,97458.31
2023-01-12T14:11:25.312Z,97451.03
2023-01-12T14:13:58.576Z,97461.19
2023-01-12T14:16:25.292Z,97450.63
2023-01-12T14:18:51.950Z,97455.16
2023-01-12T14:21:34.516Z,97459.50
2023-01-12T14:24:23.352Z,97464.25
2023-01-12T14:26:50.063Z,97460.47
2023-01-12T14:29:16.740Z,97466.88
2023-01-12T14:31:47.477Z,97457.00
2023-01-12T14:34:31.189Z,97454.94
2023-01-12T14:36:57.919Z,97441.28
2023-01-12T14:39:26.535Z,97443.75
2023-01-12T14:41:56.452Z,97455.25
2023-01-12T14:44:24.512Z,97460.75
2023-01-12T14:46:52.916Z,97453.47
2023-01-12T14:49:27.081Z,97465.38
2023-01-12T14:51:54.268Z,97468.50
2023-01-12T14:54:27.490Z,97462.22
2023-01-12T14:56:56.982Z,97457.78
2023-01-12T14:59:24.590Z,97450.19
2023-01-12T15:01:54.342Z,97452.31
2023-01-12T15:04:22.734Z,97446.13
2023-01-12T15:07:00.592Z,97442.00
2023-01-12T15:09:29.491Z,97447.59
2023-01-12T15:11:56.339Z,97444.69
2023-01-12T15:14:25.109Z,97429.19
2023-01-12T15:16:52.864Z,97426.50
2023-01-12T15:19:19.516Z,97431.84
2023-01-12T15:21:46.198Z,97426.91
2023-01-12T15:24:28.759Z,97435.78
2023-01-12T15:27:05.726Z,97445.28
2023-01-12T15:29:32.891Z,97439.91
2023-01-12T15:31:59.646Z,97441.59
2023-01-12T15:34:26.768Z,97426.09
2023-01-12T15:36:53.481Z,97418.00
2023-01-12T15:39:20.166Z,97421.72
2023-01-12T15:41:46.814Z,97419.47
2023-01-12T15:44:13.768Z,97417.41
2023-01-12T15:46:40.767Z,97413.09
2023-01-12T15:49:07.551Z,97417.41
2023-01-12T15:51:34.399Z,97433.69
2023-01-12T15:54:01.071Z,97421.28
2023-01-12T15:56:28.193Z,97411.41
2023-01-12T15:58:54.865Z,97407.66
2023-01-12T16:01:21.642Z,97412.03
2023-01-12T16:04:15.446Z,97407.47
2023-01-12T16:06:34.879Z,97399.22
2023-01-12T16:09:01.554Z,97394.22
2023-01-12T16:11:28.166Z,97393.13
2023-01-12T16:13:54.825Z,97404.22
2023-01-12T16:16:21.571Z,97416.16
2023-01-12T16:18:48.313Z,97412.47
2023-01-12T16:21:15.870Z,97408.13
2023-01-12T16:23:42.619Z,97432.25
2023-01-12T16:26:09.908Z,97421.97
2023-01-12T16:28:36.670Z,97413.09
2023-01-12T16:31:07.368Z,97408.53
2023-01-12T16:33:34.151Z,97404.94
2023-01-12T16:36:00.849Z,97403.56
2023-01-12T16:38:27.892Z,97396.13
2023-01-12T16:40:54.511Z,97398.22
2023-01-12T16:43:21.736Z,97400.69
2023-01-12T16:45:48.415Z,97391.84
2023-01-12T16:48:15.081Z,97388.31
2023-01-12T16:50:42.188Z,97382.53
2023-01-12T16:53:09.338Z,97393.84
2023-01-12T16:55:37.967Z,97383.50
2023-01-12T16:58:05.243Z,97369.94
2023-01-12T17:00:31.931Z,97377.72
2023-01-12T17:02:59.112Z,97388.34
2023-01-12T17:05:25.792Z,97391.50
2023-01-12T17:07:54.295Z,97387.81
2023-01-12T17:10:21.709Z,97367.84
2023-01-12T17:12:52.997Z,97363.47
2023-01-12T17:15:23.036Z,97355.59
2023-01-12T17:17:50.200Z,97364.56
2023-01-12T17:20:17.154Z,97351.47
2023-01-12T17:22:43.944Z,97348.78
2023-01-12T17:25:10.915Z,97361.53
2023-01-12T17:27:37.784Z,97361.56
2023-01-12T17:30:04.902Z,97351.94
2023-01-12T17:32:32.735Z,97347.41
2023-01-12T17:34:59.504Z,97340.31
2023-01-12T17:37:26.105Z,97331.47
2023-01-12T17:39:52.815Z,97333.91
2023-01-12T17:42:19.485Z,97344.84
2023-01-12T17:44:46.108Z,97347.16
2023-01-12T17:47:12.778Z,97344.84
2023-01-12T17:49:39.503Z,97334.38
2023-01-12T17:52:06.226Z,97334.72
2023-01-12T17:54:32.952Z,97335.75
2023-01-12T17:56:59.693Z,97322.97
2023-01-12T17:59:26.427Z,97321.81
2023-01-12T18:01:53.321Z,97312.25
2023-01-12T18:04:20.053Z,97328.03
2023-01-12T18:06:46.662Z,97317.34
2023-01-12T18:09:13.424Z,97319.06
2023-01-12T18:11:40.070Z,97333.88
2023-01-12T18:14:06.992Z,97335.31
2023-01-12T18:16:33.801Z,97340.94
2023-01-12T18:19:02.383Z,97338.44
2023-01-12T18:21:29.072Z,97326.31
2023-01-12T18:23:58.439Z,97323.19
2023-01-12T18:26:29.582Z,97316.75
2023-01-12T18:28:56.560Z,97306.28
2023-01-12T18:31:26.544Z,97302.59
2023-01-12T18:33:55.660Z,97304.03
2023-01-12T18:36:23.658Z,97303.81
2023-01-12T18:38:50.781Z,97312.25
2023-01-12T18:41:18.324Z,97307.09
2023-01-12T18:43:44.976Z,97314.59
2023-01-12T18:46:11.685Z,97304.28
2023-01-12T18:48:38.537Z,97297.50
2023-01-12T18:51:05.244Z,97289.44
2023-01-12T18:53:31.863Z,97278.69
2023-01-12T18:55:58.838Z,97265.72
2023-01-12T18:58:27.109Z,97266.50
2023-01-12T19:01:13.723Z,97267.16
2023-01-12T19:03:40.655Z,97266.97
2023-01-12T19:06:15.298Z,97278.66
2023-01-12T19:08:42.099Z,97268.78
2023-01-12T19:11:10.281Z,97248.47
2023-01-12T19:13:37.445Z,97255.03
2023-01-12T19:16:04.362Z,97263.13
2023-01-12T19:18:31.050Z,97265.59
2023-01-12T19:20:58.103Z,97257.81
2023-01-12T19:23:24.763Z,97265.22
2023-01-12T19:25:51.399Z,97256.50
2023-01-12T19:28:18.128Z,97251.44
2023-01-12T19:30:45.276Z,97241.28
2023-01-12T19:33:12.426Z,97239.41
2023-01-12T19:35:41.080Z,97228.69
2023-01-12T19:38:08.638Z,97229.69
2023-01-12T19:40:36.814Z,97238.72
2023-01-12T19:43:03.638Z,97240.19
2023-01-12T19:45:30.309Z,97240.78
2023-01-12T19:47:57.001Z,97240.38
2023-01-12T19:50:23.669Z,97244.91
2023-01-12T19:52:50.336Z,97244.69
2023-01-12T19:55:17.010Z,97244.06
2023-01-12T19:57:43.732Z,97240.75
2023-01-12T20:00:13.041Z,97239.28
2023-01-12T20:02:39.889Z,97254.28
2023-01-12T20:05:06.650Z,97252.44
2023-01-12T20:07:33.292Z,97250.56
2023-01-12T20:10:00.061Z,97252.84
2023-01-12T20:12:26.795Z,97257.41
2023-01-12T20:14:53.450Z,97260.94
2023-01-12T20:17:20.363Z,97257.69
2023-01-12T20:19:47.324Z,97267.56
2023-01-12T20:22:13.939Z,97264.22
2023-01-12T20:24:40.571Z,97270.06
2023-01-12T20:27:07.246Z,97268.63
2023-01-12T20:29:34.094Z,97262.03
2023-01-12T20:32:00.797Z,97256.09
2023-01-12T20:34:27.490Z,97254.81
2023-01-12T20:36:54.141Z,97257.25
2023-01-12T20:39:20.837Z,97261.34
2023-01-12T20:41:47.511Z,97243.66
2023-01-12T20:44:14.935Z,97232.13
2023-01-12T20:46:41.630Z,97231.69
2023-01-12T20:49:08.314Z,97238.72
2023-01-12T20:51:35.095Z,97236.19
2023-01-12T20:54:02.280Z,97231.06
2023-01-12T20:56:28.949Z,97237.88
2023-01-12T20:58:56.641Z,97245.88
2023-01-12T21:01:23.422Z,97250.41
2023-01-12T21:03:50.171Z,97227.59
2023-01-12T21:06:17.177Z,97225.47
2023-01-12T21:08:44.463Z,97215.56
2023-01-12T21:11:15.409Z,97203.19
2023-01-12T21:13:42.106Z,97205.66
2023-01-12T21:16:08.904Z,97208.56
2023-01-12T21:18:35.630Z,97215.31
2023-01-12T21:21:02.943Z,97230.00
2023-01-12T21:23:29.659Z,97230.59
2023-01-12T21:25:56.306Z,97225.09
2023-01-12T21:28:23.151Z,97212.34
2023-01-12T21:30:49.880Z,97225.94
2023-01-12T21:33:16.632Z,97239.91
2023-01-12T21:35:43.293Z,97248.31
2023-01-12T21:38:10.039Z,97247.13
2023-01-12T21:40:37.168Z,97251.81
2023-01-12T21:43:03.807Z,97248.53
2023-01-12T21:45:30.458Z,97244.84
2023-01-12T21:47:58.400Z,97254.06
2023-01-12T21:50:25.059Z,97253.66
2023-01-12T21:52:51.688Z,97234.47
2023-01-12T21:55:18.436Z,97229.59
2023-01-12T21:57:45.154Z,97259.44
2023-01-12T22:00:12.226Z,97250.56
2023-01-12T22:02:38.885Z,97259.88
2023-01-12T22:05:05.692Z,97285.56
2023-01-12T22:07:32.353Z,97275.94
2023-01-12T22:09:59.049Z,97280.19
2023-01-12T22:12:26.884Z,97288.44
2023-01-12T22:14:53.575Z,97282.47
2023-01-12T22:17:20.248Z,97271.06
2023-01-12T22:19:46.853Z,97259.25
2023-01-12T22:22:13.550Z,97252.84
2023-01-12T22:24:40.178Z,97251.94
2023-01-12T22:27:06.772Z,97232.28
2023-01-12T22:29:33.493Z,97224.22
2023-01-12T22:32:00.306Z,97229.50
2023-01-12T22:34:27.028Z,97236.66
2023-01-12T22:36:53.641Z,97242.63
2023-01-12T22:39:20.274Z,97241.88
2023-01-12T22:41:46.905Z,97251.78
2023-01-12T22:44:13.594Z,97254.44
2023-01-12T22:46:40.283Z,97256.50
2023-01-12T22:49:06.891Z,97258.41
2023-01-12T22:51:33.622Z,97253.69
2023-01-12T22:54:00.258Z,97247.28
2023-01-12T22:56:26.861Z,97251.50
2023-01-12T22:58:54.340Z,97235.00
2023-01-12T23:01:21.495Z,97240.34
2023-01-12T23:03:48.236Z,97233.78
2023-01-12T23:06:15.640Z,97229.22
2023-01-12T23:08:42.828Z,97223.09
2023-01-12T23:11:15.350Z,97221.00
2023-01-12T23:13:42.605Z,97212.69
2023-01-12T23:16:10.065Z,97215.22
2023-01-12T23:18:38.774Z,97210.31
2023-01-12T23:21:12.242Z,97208.50
2023-01-12T23:23:38.889Z,97210.09
2023-01-12T23:26:06.311Z,97209.50
2023-01-12T23:28:32.963Z,97216.91
2023-01-12T23:31:06.429Z,97212.63
2023-01-12T23:33:33.208Z,97218.75
2023-01-12T23:36:07.929Z,97217.31
2023-01-12T23:38:34.781Z,97216.72
2023-01-12T23:41:22.431Z,97209.53
2023-01-12T23:43:50.019Z,97211.84
2023-01-12T23:46:16.835Z,97209.38
2023-01-12T23:48:43.584Z,97213.53
2023-01-12T23:51:10.218Z,97208.41
2023-01-12T23:53:36.911Z,97202.84
2023-01-12T23:56:07.959Z,97208.56
2023-01-12T23:58:34.634Z,97209.63
